AKDT,Max TemperatureF,Mean TemperatureF,Min TemperatureF,Max Dew PointF,MeanDew PointF,Min DewpointF,Max Humidity, Mean Humidity, Min Humidity, Max Sea Level PressureIn, Mean Sea Level PressureIn, Min Sea Level PressureIn, Max VisibilityMiles, Mean VisibilityMiles, Min VisibilityMiles, Max Wind SpeedMPH, Mean Wind SpeedMPH, Max Gust SpeedMPH,PrecipitationIn, CloudCover, Events, WindDirDegrees
2010-10-1,46,38,29,31,24,16,0,0,0,29.65,29.37,29.16,10,9,5,30,14,40,0.13,8,Rain-Snow,356
2010-10-2,42,40,38,39,36,32,0,0,0,29.32,29.16,29.09,10,9,4,21,8,24,0.03,8,Fog-Rain,36
2010-10-3,47,42,37,39,37,27,0,0,0,29.47,29.41,29.34,10,8,3,15,7,18,0.05,7,Rain,74
2010-10-4,47,41,35,38,32,25,0,0,0,29.52,29.45,29.38,10,10,10,16,7,20,0.00,4,,42
2010-10-5,44,37,30,36,34,29,0,0,0,29.52,29.48,29.45,10,10,10,13,4,17,0.00,7,,353
2010-10-6,39,34,28,31,27,25,0,0,0,29.64,29.57,29.52,10,10,10,12,5,14,T,8,,3
2010-10-7,41,37,32,31,28,25,0,0,0,29.68,29.66,29.64,10,10,10,8,3,9,0.00,8,,332
2010-10-8,39,35,31,34,31,28,0,0,0,29.69,29.68,29.65,10,10,5,12,4,14,0.09,8,Rain-Snow,62
2010-10-9,35,30,24,30,27,19,0,0,0,29.65,29.61,29.60,10,9,4,17,6,22,T,7,Snow,42
2010-10-10,33,28,23,22,17,14,0,0,0,29.79,29.70,29.62,10,10,10,20,8,25,0.00,4,,357
2010-10-11,32,25,17,19,15,11,0,0,0,29.98,29.89,29.81,10,10,10,12,6,14,0.00,4,,341
2010-10-12,30,29,27,27,21,17,0,0,0,30.01,29.96,29.91,10,7,2,13,0,15,0.03,8,Snow,65
2010-10-13,39,34,29,37,33,27,0,0,0,29.91,29.85,29.80,10,5,2,17,9,21,0.57,8,Rain-Snow,97
2010-10-14,38,36,33,36,35,32,0,0,0,29.80,29.77,29.76,10,9,5,13,9,17,0.16,8,Rain,144
2010-10-15,35,31,26,32,28,19,0,0,0,29.82,29.79,29.70,10,9,6,18,10,23,0.01,8,Rain-Snow,76
2010-10-16,32,28,24,20,17,13,0,0,0,29.69,29.50,29.37,10,10,10,23,14,30,0.00,6,,39
2010-10-17,34,31,27,19,16,14,0,0,0,29.42,29.39,29.38,10,10,10,21,12,26,0.00,4,,20
2010-10-18,35,28,21,18,15,13,0,0,0,29.60,29.49,29.40,10,10,10,20,7,23,0.00,0,,353
2010-10-19,29,23,16,21,17,13,0,0,0,29.65,29.64,29.61,10,10,7,10,4,12,T,6,Snow,62
2010-10-20,30,23,15,18,16,14,0,0,0,29.62,29.56,29.51,10,10,10,10,5,14,0.00,4,,36
2010-10-21,37,25,13,34,23,10,0,0,0,29.51,29.42,29.37,10,10,4,20,7,25,0.12,6,Rain-Snow,43
2010-10-22,40,37,34,34,29,25,0,0,0,29.49,29.45,29.39,10,10,7,22,13,28,0.08,6,Rain,69
2010-10-23,39,34,29,24,21,19,0,0,0,29.49,29.43,29.41,10,10,10,14,7,16,0.00,5,,57
2010-10-24,41,34,27,30,26,23,0,0,0,29.51,29.50,29.49,10,10,10,13,5,14,0.00,3,,15
2010-10-25,36,30,23,25,18,14,0,0,0,29.59,29.54,29.51,10,10,10,20,6,24,0.00,3,,28
2010-10-26,33,28,23,28,21,13,0,0,0,29.73,29.68,29.60,10,10,5,22,8,26,T,7,Snow,73
2010-10-27,36,34,32,36,31,27,0,0,0,29.66,29.20,28.89,10,5,0,39,25,47,0.12,8,Fog-Rain-Snow,130
2010-10-28,36,35,33,34,32,30,0,0,0,28.91,28.89,28.87,10,9,4,23,18,29,0.02,8,Rain-Snow,143
2010-10-29,36,34,31,32,31,28,0,0,0,28.97,28.91,28.87,10,6,1,22,10,28,0.14,8,Rain-Snow,126
2010-10-30,32,30,28,30,28,24,0,0,0,29.11,29.01,28.96,10,4,0,21,14,26,0.15,8,Fog-Snow,73
2010-10-31,29,24,18,23,19,11,0,0,0,29.26,29.18,29.11,10,10,9,20,9,24,T,6,Snow,55